createdAt,value
2019-02-22T00:02:17.823Z,8.54
2019-02-22T00:07:35.120Z,8.62
2019-02-22T00:12:53.308Z,8.59
2019-02-22T00:18:10.655Z,8.57
2019-02-22T00:23:29.006Z,8.54
2019-02-22T00:28:46.496Z,8.59
2019-02-22T00:34:05.272Z,8.61
2019-02-22T00:39:22.973Z,8.57
2019-02-22T00:44:40.948Z,8.62
2019-02-22T00:49:59.121Z,8.46
2019-02-22T00:55:16.400Z,8.60
2019-02-22T01:00:33.787Z,8.32
2019-02-22T01:05:51.596Z,8.40
2019-02-22T01:11:09.562Z,8.09
2019-02-22T01:16:27.388Z,8.01
2019-02-22T01:21:44.676Z,7.80
2019-02-22T01:27:01.926Z,7.83
2019-02-22T01:32:19.756Z,7.67
2019-02-22T01:37:37.188Z,7.68
2019-02-22T01:42:54.810Z,7.55
2019-02-22T01:48:12.681Z,7.55
2019-02-22T01:53:31.093Z,7.47
2019-02-22T01:58:49.141Z,7.44
2019-02-22T02:04:06.431Z,7.48
2019-02-22T02:09:24.038Z,7.58
2019-02-22T02:14:42.317Z,7.60
2019-02-22T02:19:59.810Z,7.55
2019-02-22T02:25:17.237Z,7.65
2019-02-22T02:30:34.512Z,7.73
2019-02-22T02:35:52.338Z,7.73
2019-02-22T02:41:11.552Z,7.80
2019-02-22T02:46:28.281Z,7.79
2019-02-22T02:51:45.838Z,7.89
2019-02-22T02:57:03.315Z,7.88
2019-02-22T03:02:26.331Z,7.88
2019-02-22T03:07:45.659Z,7.82
2019-02-22T03:13:03.500Z,7.89
2019-02-22T03:18:21.027Z,7.76
2019-02-22T03:23:38.722Z,7.59
2019-02-22T03:28:56.215Z,7.34
2019-02-22T03:34:13.578Z,7.27
2019-02-22T03:39:31.953Z,7.29
2019-02-22T03:44:49.693Z,7.28
2019-02-22T03:50:07.160Z,6.92
2019-02-22T03:55:24.423Z,6.71
2019-02-22T04:00:41.638Z,6.61
2019-02-22T04:05:59.618Z,6.38
2019-02-22T04:11:18.035Z,6.29
2019-02-22T04:16:36.629Z,6.29
2019-02-22T04:21:54.108Z,6.31
2019-02-22T04:27:11.465Z,6.32
2019-02-22T04:32:29.075Z,6.29
2019-02-22T04:37:46.530Z,6.42
2019-02-22T04:43:04.105Z,6.22
2019-02-22T04:48:22.242Z,6.28
2019-02-22T04:53:39.976Z,6.29
2019-02-22T04:58:57.281Z,6.41
2019-02-22T05:04:15.272Z,6.31
2019-02-22T05:09:32.857Z,6.32
2019-02-22T05:14:50.783Z,6.34
2019-02-22T05:20:09.753Z,6.36
2019-02-22T05:30:46.147Z,6.36
2019-02-22T05:36:10.302Z,6.36
2019-02-22T05:41:27.634Z,6.35
2019-02-22T05:47:00.486Z,6.37
2019-02-22T05:52:11.042Z,6.32
2019-02-22T05:57:28.420Z,6.37
2019-02-22T06:02:45.557Z,6.35
2019-02-22T06:08:04.182Z,6.38
2019-02-22T06:13:21.519Z,6.43
2019-02-22T06:18:39.076Z,6.43
2019-02-22T06:23:57.645Z,6.44
2019-02-22T06:29:15.200Z,6.11
2019-02-22T06:34:32.331Z,6.03
2019-02-22T06:39:50.456Z,6.06
2019-02-22T06:45:08.246Z,6.14
2019-02-22T06:50:33.860Z,6.18
2019-02-22T06:55:44.433Z,6.18
2019-02-22T07:01:02.799Z,6.27
2019-02-22T07:06:21.151Z,6.26
2019-02-22T07:11:44.403Z,6.30
2019-02-22T07:17:02.894Z,6.31
2019-02-22T07:22:20.290Z,6.38
2019-02-22T07:27:38.186Z,6.39
2019-02-22T07:32:56.905Z,6.43
2019-02-22T07:38:14.720Z,6.38
2019-02-22T07:43:33.087Z,6.48
2019-02-22T07:48:51.353Z,6.38
2019-02-22T07:54:08.986Z,6.49
2019-02-22T07:59:26.388Z,6.46
2019-02-22T08:04:44.190Z,6.46
2019-02-22T08:10:02.621Z,6.50
2019-02-22T08:15:20.723Z,6.53
2019-02-22T08:20:38.851Z,6.59
2019-02-22T08:25:56.200Z,6.60
2019-02-22T08:31:14.011Z,6.57
2019-02-22T08:36:32.100Z,6.61
2019-02-22T08:41:49.708Z,6.61
2019-02-22T08:47:07.116Z,6.60
2019-02-22T08:52:24.427Z,6.61
2019-02-22T08:57:41.858Z,6.63
2019-02-22T09:03:00.796Z,6.68
2019-02-22T09:08:18.108Z,6.68
2019-02-22T09:13:43.075Z,6.66
2019-02-22T09:18:53.912Z,6.74
2019-02-22T09:24:11.639Z,6.82
2019-02-22T09:29:29.568Z,6.89
2019-02-22T09:34:48.399Z,6.85
2019-02-22T09:40:06.596Z,6.88
2019-02-22T09:45:26.203Z,6.90
2019-02-22T09:50:43.756Z,6.88
2019-02-22T09:56:01.599Z,6.91
2019-02-22T10:01:19.546Z,6.78
2019-02-22T10:06:37.050Z,6.87
2019-02-22T10:11:55.189Z,6.86
2019-02-22T10:17:12.867Z,6.99
2019-02-22T10:22:30.317Z,6.89
2019-02-22T10:27:48.029Z,6.89
2019-02-22T10:33:06.261Z,6.85
2019-02-22T10:38:24.146Z,6.90
2019-02-22T10:43:41.623Z,6.97
2019-02-22T10:49:00.611Z,7.08
2019-02-22T10:54:18.751Z,7.05
2019-02-22T10:59:36.636Z,7.21
2019-02-22T11:04:54.303Z,7.09
2019-02-22T11:10:12.888Z,7.14
2019-02-22T11:15:30.496Z,7.40
2019-02-22T11:20:48.781Z,7.57
2019-02-22T11:26:06.359Z,7.55
2019-02-22T11:31:24.945Z,7.65
2019-02-22T11:36:43.838Z,7.50
2019-02-22T11:42:02.342Z,7.33
2019-02-22T11:47:21.622Z,7.48
2019-02-22T11:52:39.842Z,8.02
2019-02-22T11:57:58.214Z,8.10
2019-02-22T12:03:24.355Z,8.14
2019-02-22T12:08:33.568Z,7.97
2019-02-22T12:13:51.278Z,7.59
2019-02-22T12:19:10.550Z,6.84
2019-02-22T12:24:28.136Z,6.85
2019-02-22T12:29:46.439Z,6.75
2019-02-22T12:35:06.245Z,6.61
2019-02-22T12:40:25.084Z,6.83
2019-02-22T12:45:43.534Z,6.92
2019-02-22T12:51:01.714Z,6.75
2019-02-22T12:56:22.903Z,6.83
2019-02-22T13:01:38.865Z,6.84
2019-02-22T13:06:56.598Z,6.76
2019-02-22T13:12:17.444Z,6.82
2019-02-22T13:17:34.179Z,6.84
2019-02-22T13:22:52.830Z,6.87
2019-02-22T13:28:10.892Z,6.82
2019-02-22T13:33:29.160Z,6.75
2019-02-22T13:38:47.611Z,6.69
2019-02-22T13:44:06.428Z,6.81
2019-02-22T13:49:24.417Z,6.74
2019-02-22T13:54:44.499Z,6.67
2019-02-22T14:00:03.552Z,6.57
2019-02-22T14:05:21.419Z,6.54
2019-02-22T14:10:40.813Z,6.47
2019-02-22T14:15:59.724Z,6.43
2019-02-22T14:21:18.058Z,6.44
2019-02-22T14:26:36.012Z,6.37
2019-02-22T14:31:54.219Z,6.41
2019-02-22T14:37:13.356Z,6.28
2019-02-22T14:42:31.889Z,6.48
2019-02-22T14:47:53.132Z,6.69
2019-02-22T14:53:19.061Z,6.72
2019-02-22T14:59:00.272Z,6.79
2019-02-22T15:04:16.600Z,6.71
2019-02-22T15:09:35.617Z,6.65
2019-02-22T15:14:53.228Z,6.84
2019-02-22T15:20:11.343Z,6.55
2019-02-22T15:25:29.619Z,6.30
2019-02-22T15:30:48.615Z,5.97
2019-02-22T15:36:07.509Z,5.95
2019-02-22T15:41:25.516Z,5.73
2019-02-22T15:46:42.997Z,5.59
2019-02-22T15:52:01.059Z,5.48
2019-02-22T15:57:19.092Z,5.32
2019-02-22T16:02:37.098Z,5.25
2019-02-22T16:07:55.047Z,5.06
2019-02-22T16:13:16.667Z,4.91
2019-02-22T16:18:37.103Z,4.78
2019-02-22T16:24:08.613Z,4.50
2019-02-22T16:29:30.592Z,4.25
2019-02-22T16:34:55.543Z,4.32
2019-02-22T16:40:12.889Z,4.17
2019-02-22T16:45:31.178Z,3.98
2019-02-22T16:50:59.392Z,3.71
2019-02-22T16:56:17.367Z,3.47
2019-02-22T17:01:35.076Z,3.23
2019-02-22T17:06:56.448Z,3.07
2019-02-22T17:12:15.977Z,3.03
2019-02-22T17:17:35.519Z,2.95
2019-02-22T17:22:56.303Z,2.94
2019-02-22T17:28:13.243Z,2.96
2019-02-22T17:33:33.081Z,2.93
2019-02-22T17:38:54.936Z,2.88
2019-02-22T17:44:12.823Z,2.89
2019-02-22T17:49:31.547Z,2.76
2019-02-22T17:54:49.293Z,2.56
2019-02-22T18:00:07.953Z,2.35
2019-02-22T18:05:25.926Z,2.18
2019-02-22T18:10:43.639Z,2.04
2019-02-22T18:16:04.588Z,1.93
2019-02-22T18:21:23.522Z,1.77
2019-02-22T18:26:42.187Z,1.68
2019-02-22T18:31:59.879Z,1.61
2019-02-22T18:37:18.217Z,1.58
2019-02-22T18:42:36.069Z,1.59
2019-02-22T18:47:56.267Z,1.52
2019-02-22T18:53:14.926Z,1.45
2019-02-22T18:58:32.940Z,1.33
2019-02-22T19:03:51.898Z,1.21
2019-02-22T19:09:10.961Z,1.14
2019-02-22T19:14:28.907Z,1.12
2019-02-22T19:19:47.102Z,1.00
2019-02-22T19:25:04.719Z,0.90
2019-02-22T19:30:22.879Z,0.80
2019-02-22T19:35:40.805Z,0.83
2019-02-22T19:40:59.327Z,0.74
2019-02-22T19:46:18.669Z,0.67
2019-02-22T19:51:36.294Z,0.69
2019-02-22T19:56:55.445Z,0.66
2019-02-22T20:02:14.391Z,0.50
2019-02-22T20:07:32.920Z,0.52
2019-02-22T20:12:51.138Z,0.45
2019-02-22T20:18:10.654Z,0.29
2019-02-22T20:23:28.475Z,0.22
2019-02-22T20:28:47.527Z,0.05
2019-02-22T20:34:05.048Z,-0.09
2019-02-22T20:39:23.377Z,-0.23
2019-02-22T20:44:41.906Z,-0.45
2019-02-22T20:49:59.783Z,-0.58
2019-02-22T20:55:17.915Z,-0.59
2019-02-22T21:00:37.176Z,-0.57
2019-02-22T21:05:55.016Z,-0.55
2019-02-22T21:11:13.258Z,-0.52
2019-02-22T21:16:31.989Z,-0.43
2019-02-22T21:21:49.797Z,-0.38
2019-02-22T21:27:08.467Z,-0.36
2019-02-22T21:32:25.984Z,-0.39
2019-02-22T21:37:44.211Z,-0.43
2019-02-22T21:43:01.650Z,-0.66
2019-02-22T21:48:27.187Z,-0.81
2019-02-22T21:53:37.718Z,-0.93
2019-02-22T21:58:55.200Z,-1.07
2019-02-22T22:04:13.586Z,-1.17
2019-02-22T22:09:31.559Z,-1.31
2019-02-22T22:14:49.650Z,-1.48
2019-02-22T22:20:07.429Z,-1.50
2019-02-22T22:25:24.793Z,-1.50
2019-02-22T22:30:42.992Z,-1.62
2019-02-22T22:36:00.829Z,-1.74
2019-02-22T22:41:18.969Z,-1.82
2019-02-22T22:46:37.404Z,-1.87
2019-02-22T22:51:56.853Z,-2.02
2019-02-22T22:57:15.823Z,-2.06
2019-02-22T23:02:36.432Z,-2.20
2019-02-22T23:07:56.353Z,-2.26
2019-02-22T23:13:13.707Z,-2.35
2019-02-22T23:18:31.069Z,-2.46
2019-02-22T23:23:49.150Z,-2.49
2019-02-22T23:29:07.223Z,-2.49
2019-02-22T23:34:25.363Z,-2.61
2019-02-22T23:39:43.489Z,-2.75
2019-02-22T23:45:01.467Z,-2.80
2019-02-22T23:50:19.208Z,-2.86
2019-02-22T23:55:37.325Z,-2.84
